createdAt,value
2022-12-31T00:00:51.000Z,87.55
2022-12-31T00:01:51.000Z,87.45
2022-12-31T00:02:51.000Z,87.30
2022-12-31T00:03:51.000Z,87.35
2022-12-31T00:04:51.000Z,87.35
2022-12-31T00:05:51.000Z,87.55
2022-12-31T00:06:51.000Z,87.35
2022-12-31T00:07:51.000Z,87.45
2022-12-31T00:08:52.000Z,87.41
2022-12-31T00:09:52.000Z,87.45
2022-12-31T00:10:52.000Z,87.20
2022-12-31T00:11:52.000Z,87.20
2022-12-31T00:12:52.000Z,87.41
2022-12-31T00:13:52.000Z,87.41
2022-12-31T00:14:52.000Z,87.41
2022-12-31T00:15:52.000Z,87.41
2022-12-31T00:16:52.000Z,87.30
2022-12-31T00:17:52.000Z,87.41
2022-12-31T00:18:52.000Z,87.30
2022-12-31T00:19:52.000Z,87.41
2022-12-31T00:20:52.000Z,87.41
2022-12-31T00:21:52.000Z,87.41
2022-12-31T00:22:52.000Z,87.55
2022-12-31T00:23:52.000Z,87.65
2022-12-31T00:24:52.000Z,87.55
2022-12-31T00:25:52.000Z,87.65
2022-12-31T00:26:52.000Z,87.65
2022-12-31T00:27:52.000Z,87.71
2022-12-31T00:28:52.000Z,87.76
2022-12-31T00:29:52.000Z,87.85
2022-12-31T00:30:53.000Z,88.06
2022-12-31T00:31:53.000Z,88.06
2022-12-31T00:32:53.000Z,88.17
2022-12-31T00:33:53.000Z,88.17
2022-12-31T00:34:53.000Z,88.37
2022-12-31T00:35:53.000Z,88.47
2022-12-31T00:36:53.000Z,88.68
2022-12-31T00:37:53.000Z,88.57
2022-12-31T00:38:53.000Z,88.68
2022-12-31T00:39:53.000Z,88.68
2022-12-31T00:40:53.000Z,88.78
2022-12-31T00:41:53.000Z,88.98
2022-12-31T00:42:53.000Z,88.98
2022-12-31T00:43:53.000Z,88.98
2022-12-31T00:44:53.000Z,89.09
2022-12-31T00:45:53.000Z,89.18
2022-12-31T00:46:53.000Z,89.18
2022-12-31T00:47:53.000Z,89.09
2022-12-31T00:48:53.000Z,89.18
2022-12-31T00:49:53.000Z,89.09
2022-12-31T00:50:53.000Z,89.04
2022-12-31T00:51:53.000Z,88.94
2022-12-31T00:52:53.000Z,88.94
2022-12-31T00:53:53.000Z,88.84
2022-12-31T00:54:54.000Z,88.74
2022-12-31T00:55:54.000Z,88.64
2022-12-31T00:56:54.000Z,88.64
2022-12-31T00:57:54.000Z,88.64
2022-12-31T00:58:54.000Z,88.74
2022-12-31T00:59:54.000Z,88.64
2022-12-31T01:00:54.000Z,88.64
2022-12-31T01:01:54.000Z,88.64
2022-12-31T01:02:54.000Z,88.53
2022-12-31T01:03:54.000Z,88.53
2022-12-31T01:04:54.000Z,88.64
2022-12-31T01:05:54.000Z,88.53
2022-12-31T01:06:54.000Z,88.74
2022-12-31T01:07:54.000Z,88.74
2022-12-31T01:08:54.000Z,88.84
2022-12-31T01:09:54.000Z,88.94
2022-12-31T01:10:54.000Z,89.04
2022-12-31T01:11:54.000Z,89.04
2022-12-31T01:12:54.000Z,89.15
2022-12-31T01:13:54.000Z,89.39
2022-12-31T01:14:54.000Z,89.35
2022-12-31T01:15:54.000Z,89.35
2022-12-31T01:16:54.000Z,89.25
2022-12-31T01:17:54.000Z,89.15
2022-12-31T01:18:55.000Z,89.15
2022-12-31T01:19:55.000Z,89.15
2022-12-31T01:20:55.000Z,89.15
2022-12-31T01:21:55.000Z,89.04
2022-12-31T01:22:55.000Z,89.15
2022-12-31T01:23:55.000Z,89.25
2022-12-31T01:24:55.000Z,89.25
2022-12-31T01:25:55.000Z,89.35
2022-12-31T01:26:55.000Z,89.35
2022-12-31T01:27:55.000Z,89.35
2022-12-31T01:28:55.000Z,89.35
2022-12-31T01:29:55.000Z,89.45
2022-12-31T01:30:55.000Z,89.45
2022-12-31T01:31:55.000Z,89.35
2022-12-31T01:32:55.000Z,89.35
2022-12-31T01:33:55.000Z,89.31
2022-12-31T01:34:55.000Z,89.31
2022-12-31T01:35:55.000Z,89.31
2022-12-31T01:36:55.000Z,89.31
2022-12-31T01:37:55.000Z,89.20
2022-12-31T01:38:55.000Z,89.20
2022-12-31T01:39:55.000Z,89.20
2022-12-31T01:40:55.000Z,89.31
2022-12-31T01:41:56.000Z,89.51
2022-12-31T01:42:56.000Z,89.61
2022-12-31T01:43:56.000Z,89.51
2022-12-31T01:44:56.000Z,89.51
2022-12-31T01:45:56.000Z,89.51
2022-12-31T01:46:56.000Z,89.31
2022-12-31T01:47:56.000Z,89.20
2022-12-31T01:48:56.000Z,89.20
2022-12-31T01:49:56.000Z,89.20
2022-12-31T01:50:56.000Z,89.31
2022-12-31T01:51:56.000Z,89.31
2022-12-31T01:52:56.000Z,89.31
2022-12-31T01:53:56.000Z,89.31
2022-12-31T01:54:56.000Z,89.41
2022-12-31T01:55:56.000Z,89.31
2022-12-31T01:56:56.000Z,89.31
2022-12-31T01:57:56.000Z,89.41
2022-12-31T01:58:56.000Z,89.51
2022-12-31T01:59:56.000Z,89.51
2022-12-31T02:00:56.000Z,89.51
2022-12-31T02:01:56.000Z,89.61
2022-12-31T02:02:56.000Z,89.61
2022-12-31T02:03:56.000Z,89.61
2022-12-31T02:04:57.000Z,89.61
2022-12-31T02:05:57.000Z,89.72
2022-12-31T02:06:57.000Z,89.92
2022-12-31T02:07:57.000Z,89.92
2022-12-31T02:08:57.000Z,90.02
2022-12-31T02:09:57.000Z,89.92
2022-12-31T02:10:57.000Z,89.82
2022-12-31T02:11:57.000Z,89.82
2022-12-31T02:12:57.000Z,89.92
2022-12-31T02:13:57.000Z,89.92
2022-12-31T02:14:57.000Z,89.92
2022-12-31T02:15:57.000Z,90.02
2022-12-31T02:16:57.000Z,90.12
2022-12-31T02:17:57.000Z,90.23
2022-12-31T02:18:57.000Z,90.33
2022-12-31T02:19:57.000Z,90.43
2022-12-31T02:20:57.000Z,90.53
2022-12-31T02:21:57.000Z,90.64
2022-12-31T02:22:57.000Z,90.53
2022-12-31T02:23:57.000Z,90.53
2022-12-31T02:24:57.000Z,90.74
2022-12-31T02:25:57.000Z,90.64
2022-12-31T02:26:57.000Z,90.53
2022-12-31T02:27:57.000Z,90.33
2022-12-31T02:28:57.000Z,90.33
2022-12-31T02:29:58.000Z,90.39
2022-12-31T02:30:58.000Z,90.33
2022-12-31T02:31:58.000Z,90.29
2022-12-31T02:32:58.000Z,90.19
2022-12-31T02:33:58.000Z,90.19
2022-12-31T02:34:58.000Z,90.19
2022-12-31T02:35:58.000Z,90.19
2022-12-31T02:36:58.000Z,90.19
2022-12-31T02:37:58.000Z,90.08
2022-12-31T02:38:58.000Z,90.08
2022-12-31T02:39:58.000Z,90.19
2022-12-31T02:40:58.000Z,90.49
2022-12-31T02:41:58.000Z,90.59
2022-12-31T02:42:58.000Z,90.80
2022-12-31T02:43:58.000Z,91.11
2022-12-31T02:44:58.000Z,91.20
2022-12-31T02:45:58.000Z,91.00
2022-12-31T02:46:58.000Z,91.11
2022-12-31T02:47:58.000Z,91.00
2022-12-31T02:48:58.000Z,91.20
2022-12-31T02:49:58.000Z,91.31
2022-12-31T02:50:58.000Z,91.52
2022-12-31T02:51:58.000Z,91.61
2022-12-31T02:52:59.000Z,91.41
2022-12-31T02:53:59.000Z,91.31
2022-12-31T02:54:59.000Z,91.31
2022-12-31T02:55:59.000Z,91.20
2022-12-31T02:56:59.000Z,91.11
2022-12-31T02:57:59.000Z,91.11
2022-12-31T02:58:59.000Z,91.20
2022-12-31T02:59:59.000Z,91.11
2022-12-31T03:00:59.000Z,91.20
2022-12-31T03:01:59.000Z,91.20
2022-12-31T03:02:59.000Z,91.31
2022-12-31T03:03:59.000Z,91.52
2022-12-31T03:04:59.000Z,91.61
2022-12-31T03:05:59.000Z,91.86
2022-12-31T03:06:59.000Z,91.96
2022-12-31T03:07:59.000Z,92.07
2022-12-31T03:08:59.000Z,92.17
2022-12-31T03:09:59.000Z,92.17
2022-12-31T03:10:59.000Z,92.17
2022-12-31T03:11:59.000Z,92.27
2022-12-31T03:12:59.000Z,92.37
2022-12-31T03:13:59.000Z,92.37
2022-12-31T03:15:00.000Z,92.37
2022-12-31T03:16:00.000Z,92.33
2022-12-31T03:17:00.000Z,92.37
2022-12-31T03:18:00.000Z,92.23
2022-12-31T03:19:00.000Z,92.33
2022-12-31T03:20:00.000Z,92.33
2022-12-31T03:21:00.000Z,92.33
2022-12-31T03:22:00.000Z,92.33
2022-12-31T03:23:00.000Z,92.33
2022-12-31T03:24:00.000Z,92.33
2022-12-31T03:25:00.000Z,92.33
2022-12-31T03:26:00.000Z,92.23
2022-12-31T03:27:00.000Z,92.23
2022-12-31T03:28:00.000Z,92.13
2022-12-31T03:29:00.000Z,92.13
2022-12-31T03:30:00.000Z,92.23
2022-12-31T03:31:00.000Z,92.33
2022-12-31T03:32:00.000Z,92.33
2022-12-31T03:33:00.000Z,92.33
2022-12-31T03:34:00.000Z,92.23
2022-12-31T03:35:00.000Z,92.23
2022-12-31T03:36:00.000Z,92.33
2022-12-31T03:37:00.000Z,92.33
2022-12-31T03:38:01.000Z,92.23
2022-12-31T03:39:01.000Z,92.33
2022-12-31T03:40:01.000Z,92.43
2022-12-31T03:41:01.000Z,92.54
2022-12-31T03:42:01.000Z,92.43
2022-12-31T03:43:01.000Z,92.43
2022-12-31T03:44:01.000Z,92.54
2022-12-31T03:45:01.000Z,92.54
2022-12-31T03:46:01.000Z,92.54
2022-12-31T03:47:01.000Z,92.64
2022-12-31T03:48:01.000Z,92.54
2022-12-31T03:49:01.000Z,92.64
2022-12-31T03:50:01.000Z,92.64
2022-12-31T03:51:01.000Z,92.64
2022-12-31T03:52:01.000Z,92.74
2022-12-31T03:53:01.000Z,92.64
2022-12-31T03:54:01.000Z,92.74
2022-12-31T03:55:01.000Z,92.74
2022-12-31T03:56:01.000Z,92.84
2022-12-31T03:57:01.000Z,92.84
2022-12-31T03:58:01.000Z,92.84
2022-12-31T03:59:01.000Z,92.84
2022-12-31T04:00:01.000Z,92.84
2022-12-31T04:01:02.000Z,92.84
2022-12-31T04:02:02.000Z,92.84
2022-12-31T04:03:02.000Z,92.94
2022-12-31T04:04:02.000Z,93.05
2022-12-31T04:05:02.000Z,93.25
2022-12-31T04:06:02.000Z,93.25
2022-12-31T04:07:02.000Z,93.31
2022-12-31T04:08:02.000Z,93.45
2022-12-31T04:09:02.000Z,93.51
2022-12-31T04:10:02.000Z,93.41
2022-12-31T04:11:02.000Z,93.45
2022-12-31T04:12:02.000Z,93.55
2022-12-31T04:13:02.000Z,93.62
2022-12-31T04:14:02.000Z,93.62
2022-12-31T04:15:02.000Z,93.62
2022-12-31T04:16:02.000Z,93.51
2022-12-31T04:17:02.000Z,93.51
2022-12-31T04:18:02.000Z,93.41
2022-12-31T04:19:02.000Z,93.31
2022-12-31T04:20:02.000Z,93.31
2022-12-31T04:21:02.000Z,93.26
2022-12-31T04:22:02.000Z,93.06
2022-12-31T04:23:02.000Z,92.86
2022-12-31T04:24:02.000Z,92.86
2022-12-31T04:25:02.000Z,92.76
2022-12-31T04:26:03.000Z,92.55
2022-12-31T04:27:03.000Z,92.55
2022-12-31T04:28:03.000Z,92.65
2022-12-31T04:29:03.000Z,92.55
2022-12-31T04:30:03.000Z,92.50
2022-12-31T04:31:03.000Z,92.50
2022-12-31T04:32:03.000Z,92.41
2022-12-31T04:33:03.000Z,92.30
2022-12-31T04:34:03.000Z,92.10
2022-12-31T04:35:03.000Z,92.10
2022-12-31T04:36:03.000Z,92.00
2022-12-31T04:37:03.000Z,92.00
2022-12-31T04:38:03.000Z,92.00
2022-12-31T04:39:03.000Z,91.85
2022-12-31T04:40:03.000Z,91.65
2022-12-31T04:41:03.000Z,91.44
2022-12-31T04:42:03.000Z,91.44
2022-12-31T04:43:03.000Z,91.44
2022-12-31T04:44:03.000Z,91.35
2022-12-31T04:45:03.000Z,91.44
2022-12-31T04:46:03.000Z,91.35
2022-12-31T04:47:03.000Z,91.09
2022-12-31T04:48:03.000Z,90.89
2022-12-31T04:49:03.000Z,90.69
2022-12-31T04:50:03.000Z,90.48
2022-12-31T04:51:04.000Z,90.48
2022-12-31T04:52:04.000Z,90.59
2022-12-31T04:53:04.000Z,90.79
2022-12-31T04:54:04.000Z,90.69
2022-12-31T04:55:04.000Z,90.79
2022-12-31T04:56:04.000Z,90.75
2022-12-31T04:57:04.000Z,90.64
2022-12-31T04:58:04.000Z,90.55
2022-12-31T04:59:04.000Z,90.44
2022-12-31T05:00:04.000Z,90.44
2022-12-31T05:01:04.000Z,90.44
2022-12-31T05:02:04.000Z,90.44
2022-12-31T05:03:04.000Z,90.44
2022-12-31T05:04:04.000Z,90.44
2022-12-31T05:05:04.000Z,90.34
2022-12-31T05:06:04.000Z,90.24
2022-12-31T05:07:04.000Z,90.09
2022-12-31T05:08:04.000Z,89.99
2022-12-31T05:09:04.000Z,89.89
2022-12-31T05:10:04.000Z,89.79
2022-12-31T05:11:04.000Z,89.59
2022-12-31T05:12:04.000Z,89.48
2022-12-31T05:13:04.000Z,89.48
2022-12-31T05:14:04.000Z,89.38
2022-12-31T05:15:04.000Z,89.48
2022-12-31T05:16:04.000Z,89.38
2022-12-31T05:17:05.000Z,89.34
2022-12-31T05:18:05.000Z,89.24
2022-12-31T05:19:05.000Z,89.28
2022-12-31T05:20:05.000Z,89.24
2022-12-31T05:21:05.000Z,89.34
2022-12-31T05:22:05.000Z,89.24
2022-12-31T05:23:05.000Z,89.24
2022-12-31T05:24:05.000Z,89.14
2022-12-31T05:25:05.000Z,89.14
2022-12-31T05:26:05.000Z,89.03
2022-12-31T05:27:05.000Z,89.03
2022-12-31T05:28:05.000Z,88.83
2022-12-31T05:29:05.000Z,88.73
2022-12-31T05:30:05.000Z,88.73
2022-12-31T05:31:05.000Z,88.63
2022-12-31T05:32:05.000Z,88.63
2022-12-31T05:33:05.000Z,88.63
2022-12-31T05:34:05.000Z,88.48
2022-12-31T05:35:05.000Z,88.63
2022-12-31T05:36:05.000Z,88.53
2022-12-31T05:37:05.000Z,88.73
2022-12-31T05:38:05.000Z,88.73
2022-12-31T05:39:05.000Z,88.83
2022-12-31T05:40:05.000Z,88.83
2022-12-31T05:41:05.000Z,88.73
2022-12-31T05:42:05.000Z,88.63
2022-12-31T05:43:05.000Z,88.59
2022-12-31T05:44:05.000Z,88.39
2022-12-31T05:45:05.000Z,88.39
2022-12-31T05:46:05.000Z,88.48
2022-12-31T05:47:05.000Z,88.39
2022-12-31T05:48:05.000Z,88.48
2022-12-31T05:49:05.000Z,88.48
2022-12-31T05:50:06.000Z,88.48
2022-12-31T05:51:06.000Z,88.48
2022-12-31T05:52:06.000Z,88.48
2022-12-31T05:53:06.000Z,88.73
2022-12-31T05:54:06.000Z,88.73
2022-12-31T05:55:06.000Z,88.73
2022-12-31T05:56:06.000Z,88.83
2022-12-31T05:57:06.000Z,88.73
2022-12-31T05:58:06.000Z,88.59
2022-12-31T05:59:06.000Z,88.48
2022-12-31T06:00:06.000Z,88.39
2022-12-31T06:01:06.000Z,88.18
2022-12-31T06:02:06.000Z,88.08
2022-12-31T06:03:06.000Z,87.98
2022-12-31T06:04:06.000Z,88.08
2022-12-31T06:05:06.000Z,88.18
2022-12-31T06:06:06.000Z,88.18
2022-12-31T06:07:06.000Z,88.28
2022-12-31T06:08:06.000Z,88.18
2022-12-31T06:09:06.000Z,88.18
2022-12-31T06:10:06.000Z,88.08
2022-12-31T06:11:06.000Z,88.18
2022-12-31T06:12:06.000Z,88.08
2022-12-31T06:13:06.000Z,88.18
2022-12-31T06:14:06.000Z,88.18
2022-12-31T06:15:06.000Z,88.18
2022-12-31T06:16:06.000Z,87.98
2022-12-31T06:17:06.000Z,87.77
2022-12-31T06:18:06.000Z,87.63
2022-12-31T06:19:06.000Z,87.57
2022-12-31T06:20:06.000Z,87.57
2022-12-31T06:21:06.000Z,87.53
2022-12-31T06:22:07.000Z,87.47
2022-12-31T06:23:07.000Z,87.32
2022-12-31T06:23:07.000Z,87.32
2022-12-31T06:24:07.000Z,87.23
2022-12-31T06:24:07.000Z,87.23
2022-12-31T06:25:07.000Z,87.12
2022-12-31T06:25:07.000Z,87.12
2022-12-31T06:26:07.000Z,86.82
2022-12-31T06:26:07.000Z,86.82
2022-12-31T06:27:07.000Z,86.71
2022-12-31T06:27:07.000Z,86.71
2022-12-31T06:28:07.000Z,86.51
2022-12-31T06:29:07.000Z,86.41
2022-12-31T06:30:07.000Z,86.16
2022-12-31T06:31:07.000Z,85.96
2022-12-31T06:32:07.000Z,85.76
2022-12-31T06:33:07.000Z,85.25
2022-12-31T06:34:07.000Z,85.11
2022-12-31T06:35:07.000Z,84.80
2022-12-31T06:36:07.000Z,84.60
2022-12-31T06:37:07.000Z,84.60
2022-12-31T06:38:07.000Z,84.30
2022-12-31T06:39:07.000Z,84.30
2022-12-31T06:40:07.000Z,84.26
2022-12-31T06:41:07.000Z,84.09
2022-12-31T06:42:07.000Z,83.95
2022-12-31T06:43:07.000Z,83.95
2022-12-31T06:44:07.000Z,83.75
2022-12-31T06:45:07.000Z,83.95
2022-12-31T06:46:07.000Z,83.75
2022-12-31T06:47:07.000Z,83.75
2022-12-31T06:48:07.000Z,83.75
2022-12-31T06:49:07.000Z,83.65
2022-12-31T06:50:07.000Z,83.65
2022-12-31T06:51:07.000Z,83.54
2022-12-31T06:52:07.000Z,83.54
2022-12-31T06:53:07.000Z,83.54
2022-12-31T06:54:07.000Z,83.65
2022-12-31T06:55:07.000Z,83.34
2022-12-31T06:56:07.000Z,83.34
2022-12-31T06:57:07.000Z,83.45
2022-12-31T06:58:07.000Z,83.14
2022-12-31T06:59:07.000Z,83.24
2022-12-31T07:00:07.000Z,83.24
2022-12-31T07:01:07.000Z,83.24
2022-12-31T07:02:08.000Z,83.14
2022-12-31T07:03:08.000Z,83.14
2022-12-31T07:04:08.000Z,83.04
2022-12-31T07:05:08.000Z,83.00
2022-12-31T07:06:08.000Z,83.14
2022-12-31T07:07:08.000Z,83.10
2022-12-31T07:08:08.000Z,83.24
2022-12-31T07:09:08.000Z,83.00
2022-12-31T07:10:08.000Z,83.14
2022-12-31T07:11:08.000Z,83.20
2022-12-31T07:12:08.000Z,83.00
2022-12-31T07:13:08.000Z,82.90
2022-12-31T07:14:08.000Z,82.80
2022-12-31T07:15:08.000Z,82.70
2022-12-31T07:16:08.000Z,82.80
2022-12-31T07:17:08.000Z,82.80
2022-12-31T07:18:08.000Z,82.90
2022-12-31T07:19:08.000Z,82.80
2022-12-31T07:20:08.000Z,82.50
2022-12-31T07:21:08.000Z,82.50
2022-12-31T07:22:08.000Z,82.19
2022-12-31T07:23:08.000Z,82.19
2022-12-31T07:24:08.000Z,82.15
2022-12-31T07:25:08.000Z,82.09
2022-12-31T07:26:08.000Z,81.85
2022-12-31T07:27:08.000Z,81.95
2022-12-31T07:28:08.000Z,81.85
2022-12-31T07:29:08.000Z,81.74
2022-12-31T07:30:08.000Z,81.64
2022-12-31T07:31:08.000Z,81.74
2022-12-31T07:32:08.000Z,81.74
2022-12-31T07:33:08.000Z,81.74
2022-12-31T07:34:08.000Z,81.74
2022-12-31T07:35:08.000Z,81.85
2022-12-31T07:36:08.000Z,81.85
2022-12-31T07:37:08.000Z,81.95
2022-12-31T07:38:08.000Z,81.95
2022-12-31T07:39:08.000Z,81.95
2022-12-31T07:40:08.000Z,81.95
2022-12-31T07:41:08.000Z,81.95
2022-12-31T07:42:08.000Z,82.15
2022-12-31T07:43:08.000Z,82.25
2022-12-31T07:44:08.000Z,82.25
2022-12-31T07:45:08.000Z,82.05
2022-12-31T07:46:08.000Z,82.15
2022-12-31T07:47:08.000Z,82.25
2022-12-31T07:48:08.000Z,82.05
2022-12-31T07:49:08.000Z,81.95
2022-12-31T07:50:08.000Z,82.05
2022-12-31T07:51:08.000Z,81.74
2022-12-31T07:52:08.000Z,81.74
2022-12-31T07:53:08.000Z,81.74
2022-12-31T07:54:08.000Z,81.74
2022-12-31T07:55:08.000Z,81.95
2022-12-31T07:56:08.000Z,81.95
2022-12-31T07:57:08.000Z,81.95
2022-12-31T07:58:08.000Z,81.95
2022-12-31T07:59:08.000Z,81.95
2022-12-31T08:00:08.000Z,81.95
2022-12-31T08:01:08.000Z,82.15
2022-12-31T08:02:09.000Z,81.85
2022-12-31T08:03:09.000Z,81.74
2022-12-31T08:04:09.000Z,81.85
2022-12-31T08:05:09.000Z,81.81
2022-12-31T08:06:09.000Z,81.91
2022-12-31T08:07:09.000Z,81.91
2022-12-31T08:08:09.000Z,81.81
2022-12-31T08:09:09.000Z,81.91
2022-12-31T08:10:09.000Z,81.91
2022-12-31T08:11:09.000Z,81.60
2022-12-31T08:12:09.000Z,81.91
2022-12-31T08:13:09.000Z,81.81
2022-12-31T08:14:09.000Z,81.81
2022-12-31T08:15:09.000Z,81.60
2022-12-31T08:16:09.000Z,81.91
2022-12-31T08:17:09.000Z,81.91
2022-12-31T08:18:09.000Z,81.81
2022-12-31T08:19:09.000Z,81.81
2022-12-31T08:20:09.000Z,81.71
2022-12-31T08:21:09.000Z,81.71
2022-12-31T08:22:09.000Z,81.71
2022-12-31T08:23:09.000Z,81.50
2022-12-31T08:24:09.000Z,81.60
2022-12-31T08:25:09.000Z,81.30
2022-12-31T08:26:09.000Z,81.26
2022-12-31T08:27:09.000Z,81.26
2022-12-31T08:28:09.000Z,81.10
2022-12-31T08:29:09.000Z,81.26
2022-12-31T08:30:09.000Z,81.16
2022-12-31T08:31:09.000Z,81.16
2022-12-31T08:32:09.000Z,81.06
2022-12-31T08:33:09.000Z,80.96
2022-12-31T08:34:09.000Z,80.96
2022-12-31T08:35:09.000Z,81.06
2022-12-31T08:36:09.000Z,81.06
2022-12-31T08:37:09.000Z,81.06
2022-12-31T08:38:09.000Z,80.86
2022-12-31T08:39:09.000Z,80.86
2022-12-31T08:40:09.000Z,81.26
2022-12-31T08:41:09.000Z,80.96
2022-12-31T08:42:09.000Z,80.96
2022-12-31T08:43:09.000Z,80.96
2022-12-31T08:44:09.000Z,81.16
2022-12-31T08:45:09.000Z,80.86
2022-12-31T08:46:09.000Z,80.96
2022-12-31T08:47:09.000Z,80.96
2022-12-31T08:48:09.000Z,80.76
2022-12-31T08:49:09.000Z,80.86
2022-12-31T08:50:09.000Z,81.06
2022-12-31T08:51:09.000Z,81.06
2022-12-31T08:52:09.000Z,80.96
2022-12-31T08:53:09.000Z,81.06
2022-12-31T08:54:09.000Z,80.96
2022-12-31T08:55:09.000Z,80.86
2022-12-31T08:56:09.000Z,80.82
2022-12-31T08:57:09.000Z,80.82
2022-12-31T08:58:09.000Z,80.86
2022-12-31T08:59:09.000Z,81.06
2022-12-31T09:00:09.000Z,80.96
2022-12-31T09:01:09.000Z,80.82
2022-12-31T09:02:09.000Z,80.62
2022-12-31T09:03:09.000Z,80.62
2022-12-31T09:04:09.000Z,80.52
2022-12-31T09:05:09.000Z,80.41
2022-12-31T09:06:09.000Z,80.41
2022-12-31T09:07:09.000Z,80.41
2022-12-31T09:08:09.000Z,80.21
2022-12-31T09:09:09.000Z,80.11
2022-12-31T09:10:09.000Z,80.01
2022-12-31T09:11:09.000Z,80.21
2022-12-31T09:12:09.000Z,79.91
2022-12-31T09:13:09.000Z,79.67
2022-12-31T09:14:09.000Z,80.11
2022-12-31T09:15:09.000Z,79.87
2022-12-31T09:16:10.000Z,79.77
2022-12-31T09:17:10.000Z,79.67
2022-12-31T09:18:10.000Z,79.67
2022-12-31T09:19:10.000Z,79.46
2022-12-31T09:20:10.000Z,79.46
2022-12-31T09:21:10.000Z,79.36
2022-12-31T09:22:10.000Z,79.57
2022-12-31T09:23:10.000Z,79.26
2022-12-31T09:24:10.000Z,79.26
2022-12-31T09:25:10.000Z,78.92
2022-12-31T09:26:10.000Z,78.92
2022-12-31T09:27:10.000Z,79.13
2022-12-31T09:28:10.000Z,78.82
2022-12-31T09:29:10.000Z,79.22
2022-12-31T09:30:10.000Z,78.82
2022-12-31T09:31:10.000Z,79.33
2022-12-31T09:32:10.000Z,78.92
2022-12-31T09:33:10.000Z,78.42
2022-12-31T09:34:10.000Z,78.42
2022-12-31T09:35:10.000Z,78.38
2022-12-31T09:36:10.000Z,77.97
2022-12-31T09:37:10.000Z,78.17
2022-12-31T09:38:10.000Z,77.87
2022-12-31T09:39:10.000Z,77.87
2022-12-31T09:40:10.000Z,77.67
2022-12-31T09:41:10.000Z,77.57
2022-12-31T09:42:10.000Z,77.47
2022-12-31T09:43:10.000Z,77.57
2022-12-31T09:44:10.000Z,77.47
2022-12-31T09:45:10.000Z,77.03
2022-12-31T09:46:10.000Z,77.03
2022-12-31T09:47:10.000Z,76.93
2022-12-31T09:48:10.000Z,76.82
2022-12-31T09:49:10.000Z,76.62
2022-12-31T09:50:10.000Z,76.62
2022-12-31T09:51:10.000Z,76.48
2022-12-31T09:52:10.000Z,76.59
2022-12-31T09:53:10.000Z,76.99
2022-12-31T09:54:10.000Z,76.69
2022-12-31T09:55:10.000Z,76.59
2022-12-31T09:56:10.000Z,76.18
2022-12-31T09:57:10.000Z,75.98
2022-12-31T09:58:10.000Z,76.39
2022-12-31T09:59:10.000Z,76.28
2022-12-31T10:00:10.000Z,76.39
2022-12-31T10:01:10.000Z,76.18
2022-12-31T10:02:10.000Z,76.18
2022-12-31T10:03:10.000Z,76.59
2022-12-31T10:04:10.000Z,76.59
2022-12-31T10:05:10.000Z,76.62
2022-12-31T10:06:10.000Z,76.42
2022-12-31T10:07:10.000Z,76.48
2022-12-31T10:08:10.000Z,76.22
2022-12-31T10:09:10.000Z,76.28
2022-12-31T10:10:10.000Z,76.28
2022-12-31T10:11:10.000Z,76.48
2022-12-31T10:12:10.000Z,76.28
2022-12-31T10:13:10.000Z,76.28
2022-12-31T10:14:10.000Z,76.28
2022-12-31T10:15:10.000Z,76.39
2022-12-31T10:16:10.000Z,76.08
2022-12-31T10:17:10.000Z,76.48
2022-12-31T10:18:10.000Z,76.08
2022-12-31T10:19:10.000Z,75.98
2022-12-31T10:20:10.000Z,75.78
2022-12-31T10:21:10.000Z,76.18
2022-12-31T10:22:10.000Z,76.18
2022-12-31T10:23:10.000Z,75.78
2022-12-31T10:24:10.000Z,75.64
2022-12-31T10:25:10.000Z,75.78
2022-12-31T10:26:10.000Z,75.95
2022-12-31T10:27:10.000Z,75.84
2022-12-31T10:28:10.000Z,75.57
2022-12-31T10:29:10.000Z,75.48
2022-12-31T10:30:10.000Z,75.48
2022-12-31T10:31:10.000Z,75.57
2022-12-31T10:32:10.000Z,75.78
2022-12-31T10:33:10.000Z,75.88
2022-12-31T10:34:10.000Z,75.98
2022-12-31T10:35:10.000Z,76.08
2022-12-31T10:36:10.000Z,75.98
2022-12-31T10:37:10.000Z,75.95
2022-12-31T10:38:10.000Z,76.04
2022-12-31T10:39:10.000Z,75.74
2022-12-31T10:40:10.000Z,75.74
2022-12-31T10:41:10.000Z,75.51
2022-12-31T10:42:10.000Z,75.00
2022-12-31T10:43:10.000Z,75.00
2022-12-31T10:44:10.000Z,74.56
2022-12-31T10:45:10.000Z,74.26
2022-12-31T10:46:10.000Z,74.36
2022-12-31T10:47:10.000Z,73.65
2022-12-31T10:48:10.000Z,74.16
2022-12-31T10:49:10.000Z,73.65
2022-12-31T10:50:10.000Z,73.96
2022-12-31T10:51:10.000Z,73.96
2022-12-31T10:52:10.000Z,73.65
2022-12-31T10:53:10.000Z,73.75
2022-12-31T10:54:10.000Z,73.75
2022-12-31T10:55:10.000Z,73.65
2022-12-31T10:56:10.000Z,73.65
2022-12-31T10:57:10.000Z,73.45
2022-12-31T10:58:09.000Z,73.55
2022-12-31T10:58:09.000Z,73.55
2022-12-31T10:59:09.000Z,74.16
2022-12-31T10:59:09.000Z,74.16
2022-12-31T11:00:09.000Z,73.75
2022-12-31T11:00:09.000Z,73.75
2022-12-31T11:01:09.000Z,74.05
2022-12-31T11:01:09.000Z,74.05
2022-12-31T11:02:09.000Z,74.26
2022-12-31T11:02:09.000Z,74.26
2022-12-31T11:03:09.000Z,74.16
2022-12-31T11:04:09.000Z,74.05
2022-12-31T11:05:09.000Z,73.55
2022-12-31T11:06:09.000Z,73.75
2022-12-31T11:07:09.000Z,73.15
2022-12-31T11:08:09.000Z,73.25
2022-12-31T11:09:09.000Z,73.25
2022-12-31T11:10:09.000Z,73.05
2022-12-31T11:11:09.000Z,73.01
2022-12-31T11:12:09.000Z,73.45
2022-12-31T11:13:09.000Z,74.22
2022-12-31T11:14:09.000Z,73.45
2022-12-31T11:15:09.000Z,73.55
2022-12-31T11:16:09.000Z,73.45
2022-12-31T11:17:09.000Z,73.65
2022-12-31T11:18:09.000Z,73.85
2022-12-31T11:19:09.000Z,74.05
2022-12-31T11:20:09.000Z,74.05
2022-12-31T11:21:09.000Z,74.16
2022-12-31T11:22:09.000Z,74.26
2022-12-31T11:23:09.000Z,74.40
2022-12-31T11:24:09.000Z,75.00
2022-12-31T11:25:09.000Z,74.49
2022-12-31T11:26:09.000Z,73.99
2022-12-31T11:27:09.000Z,74.09
2022-12-31T11:28:09.000Z,74.40
2022-12-31T11:29:09.000Z,74.19
2022-12-31T11:30:09.000Z,73.99
2022-12-31T11:31:09.000Z,74.09
2022-12-31T11:32:09.000Z,74.29
2022-12-31T11:33:09.000Z,74.19
2022-12-31T11:34:09.000Z,74.40
2022-12-31T11:35:09.000Z,74.80
2022-12-31T11:36:09.000Z,74.60
2022-12-31T11:37:09.000Z,74.80
2022-12-31T11:38:09.000Z,74.84
2022-12-31T11:39:09.000Z,74.73
2022-12-31T11:40:09.000Z,74.63
2022-12-31T11:41:09.000Z,74.84
2022-12-31T11:42:09.000Z,74.84
2022-12-31T11:43:09.000Z,75.13
2022-12-31T11:43:09.000Z,75.13
2022-12-31T11:44:09.000Z,75.04
2022-12-31T11:44:09.000Z,75.04
2022-12-31T11:45:09.000Z,75.24
2022-12-31T11:45:09.000Z,75.24
2022-12-31T11:46:09.000Z,75.13
2022-12-31T11:46:09.000Z,75.13
2022-12-31T11:47:09.000Z,75.13
2022-12-31T11:47:09.000Z,75.13
2022-12-31T11:48:09.000Z,75.24
2022-12-31T11:49:09.000Z,75.34
2022-12-31T11:50:09.000Z,75.24
2022-12-31T11:51:09.000Z,74.84
2022-12-31T11:52:09.000Z,74.73
2022-12-31T11:53:09.000Z,75.04
2022-12-31T11:54:09.000Z,74.73
2022-12-31T11:55:09.000Z,75.04
2022-12-31T11:56:09.000Z,74.84
2022-12-31T11:57:09.000Z,74.93
2022-12-31T11:58:09.000Z,75.04
2022-12-31T11:59:09.000Z,75.04
2022-12-31T12:00:09.000Z,74.93
2022-12-31T12:01:09.000Z,74.73
2022-12-31T12:02:09.000Z,74.84
2022-12-31T12:03:09.000Z,75.04
2022-12-31T12:04:09.000Z,75.13
2022-12-31T12:05:09.000Z,74.84
2022-12-31T12:06:09.000Z,75.04
2022-12-31T12:07:09.000Z,74.73
2022-12-31T12:08:09.000Z,74.84
2022-12-31T12:09:09.000Z,74.84
2022-12-31T12:10:09.000Z,74.73
2022-12-31T12:11:09.000Z,74.63
2022-12-31T12:12:09.000Z,74.93
2022-12-31T12:13:09.000Z,74.73
2022-12-31T12:14:09.000Z,75.44
2022-12-31T12:15:09.000Z,75.13
2022-12-31T12:16:09.000Z,74.84
2022-12-31T12:17:09.000Z,74.84
2022-12-31T12:18:09.000Z,75.13
2022-12-31T12:19:09.000Z,74.93
2022-12-31T12:20:09.000Z,74.63
2022-12-31T12:21:09.000Z,74.93
2022-12-31T12:22:09.000Z,74.80
2022-12-31T12:23:09.000Z,74.53
2022-12-31T12:24:09.000Z,74.60
2022-12-31T12:25:09.000Z,74.60
2022-12-31T12:26:09.000Z,74.60
2022-12-31T12:27:09.000Z,74.90
2022-12-31T12:28:09.000Z,74.60
2022-12-31T12:29:09.000Z,74.49
2022-12-31T12:30:09.000Z,74.40
2022-12-31T12:31:09.000Z,74.19
2022-12-31T12:32:09.000Z,74.29
2022-12-31T12:33:09.000Z,74.19
2022-12-31T12:34:09.000Z,74.40
2022-12-31T12:35:09.000Z,74.40
2022-12-31T12:36:09.000Z,74.36
2022-12-31T12:37:09.000Z,74.16
2022-12-31T12:38:09.000Z,73.96